sensor_id;sensor_type;location;lat;lon;timestamp;P1;durP1;ratioP1;P2;durP2;ratioP2
38851;SDS011;24605;50.092;9.182;2022-09-12T00:01:52;14.10;;;9.70;;
38851;SDS011;24605;50.092;9.182;2022-09-12T00:04:18;14.02;;;9.18;;
38851;SDS011;24605;50.092;9.182;2022-09-12T00:06:45;15.85;;;9.27;;
38851;SDS011;24605;50.092;9.182;2022-09-12T00:09:12;14.63;;;10.18;;
38851;SDS011;24605;50.092;9.182;2022-09-12T00:11:41;14.27;;;9.93;;
38851;SDS011;24605;50.092;9.182;2022-09-12T00:14:09;15.80;;;10.10;;
38851;SDS011;24605;50.092;9.182;2022-09-12T00:16:38;13.40;;;10.25;;
38851;SDS011;24605;50.092;9.182;2022-09-12T00:19:05;14.15;;;9.60;;
38851;SDS011;24605;50.092;9.182;2022-09-12T00:21:33;13.90;;;9.35;;
38851;SDS011;24605;50.092;9.182;2022-09-12T00:24:02;11.93;;;8.55;;
38851;SDS011;24605;50.092;9.182;2022-09-12T00:26:29;14.27;;;9.27;;
38851;SDS011;24605;50.092;9.182;2022-09-12T00:28:57;14.68;;;8.77;;
38851;SDS011;24605;50.092;9.182;2022-09-12T00:31:25;12.35;;;8.75;;
38851;SDS011;24605;50.092;9.182;2022-09-12T00:33:52;12.18;;;8.93;;
38851;SDS011;24605;50.092;9.182;2022-09-12T00:36:22;13.30;;;8.70;;
38851;SDS011;24605;50.092;9.182;2022-09-12T00:38:51;12.60;;;8.57;;
38851;SDS011;24605;50.092;9.182;2022-09-12T00:41:21;15.77;;;8.65;;
38851;SDS011;24605;50.092;9.182;2022-09-12T00:43:49;14.55;;;8.65;;
38851;SDS011;24605;50.092;9.182;2022-09-12T00:46:32;11.98;;;8.82;;
38851;SDS011;24605;50.092;9.182;2022-09-12T00:49:04;14.35;;;9.30;;
38851;SDS011;24605;50.092;9.182;2022-09-12T00:51:36;15.38;;;9.93;;
38851;SDS011;24605;50.092;9.182;2022-09-12T00:54:04;13.63;;;9.57;;
38851;SDS011;24605;50.092;9.182;2022-09-12T00:56:35;14.23;;;9.63;;
38851;SDS011;24605;50.092;9.182;2022-09-12T00:59:05;12.30;;;8.75;;
38851;SDS011;24605;50.092;9.182;2022-09-12T01:01:35;14.88;;;9.65;;
38851;SDS011;24605;50.092;9.182;2022-09-12T01:04:02;14.65;;;10.27;;
38851;SDS011;24605;50.092;9.182;2022-09-12T01:06:29;13.23;;;9.55;;
38851;SDS011;24605;50.092;9.182;2022-09-12T01:08:59;15.00;;;10.13;;
38851;SDS011;24605;50.092;9.182;2022-09-12T01:11:28;13.32;;;8.80;;
38851;SDS011;24605;50.092;9.182;2022-09-12T01:13:56;11.98;;;8.65;;
38851;SDS011;24605;50.092;9.182;2022-09-12T01:16:22;14.05;;;9.35;;
38851;SDS011;24605;50.092;9.182;2022-09-12T01:18:53;13.15;;;8.52;;
38851;SDS011;24605;50.092;9.182;2022-09-12T01:21:35;12.98;;;8.30;;
38851;SDS011;24605;50.092;9.182;2022-09-12T01:27:07;14.55;;;8.65;;
38851;SDS011;24605;50.092;9.182;2022-09-12T01:29:50;11.80;;;7.65;;
38851;SDS011;24605;50.092;9.182;2022-09-12T01:32:32;12.50;;;8.77;;
38851;SDS011;24605;50.092;9.182;2022-09-12T01:35:12;13.65;;;8.10;;
38851;SDS011;24605;50.092;9.182;2022-09-12T01:37:46;12.20;;;8.07;;
38851;SDS011;24605;50.092;9.182;2022-09-12T01:40:21;12.95;;;8.25;;
38851;SDS011;24605;50.092;9.182;2022-09-12T01:42:55;12.82;;;8.23;;
38851;SDS011;24605;50.092;9.182;2022-09-12T01:45:31;12.25;;;8.00;;
38851;SDS011;24605;50.092;9.182;2022-09-12T01:48:04;12.90;;;8.13;;
38851;SDS011;24605;50.092;9.182;2022-09-12T01:50:38;13.13;;;7.93;;
38851;SDS011;24605;50.092;9.182;2022-09-12T01:55:42;10.90;;;8.05;;
38851;SDS011;24605;50.092;9.182;2022-09-12T01:58:13;12.13;;;7.90;;
38851;SDS011;24605;50.092;9.182;2022-09-12T02:00:46;12.32;;;7.78;;
38851;SDS011;24605;50.092;9.182;2022-09-12T02:03:19;10.40;;;7.55;;
38851;SDS011;24605;50.092;9.182;2022-09-12T02:05:51;13.30;;;8.68;;
38851;SDS011;24605;50.092;9.182;2022-09-12T02:08:23;12.23;;;8.05;;
38851;SDS011;24605;50.092;9.182;2022-09-12T02:10:55;11.25;;;7.95;;
38851;SDS011;24605;50.092;9.182;2022-09-12T02:13:26;11.27;;;7.32;;
38851;SDS011;24605;50.092;9.182;2022-09-12T02:15:59;10.50;;;7.50;;
38851;SDS011;24605;50.092;9.182;2022-09-12T02:18:32;11.98;;;8.18;;
38851;SDS011;24605;50.092;9.182;2022-09-12T02:21:03;10.60;;;7.55;;
38851;SDS011;24605;50.092;9.182;2022-09-12T02:23:32;14.07;;;7.88;;
38851;SDS011;24605;50.092;9.182;2022-09-12T02:26:04;12.93;;;8.48;;
38851;SDS011;24605;50.092;9.182;2022-09-12T02:28:37;14.75;;;7.97;;
38851;SDS011;24605;50.092;9.182;2022-09-12T02:31:09;11.32;;;8.00;;
38851;SDS011;24605;50.092;9.182;2022-09-12T02:33:43;11.45;;;7.40;;
38851;SDS011;24605;50.092;9.182;2022-09-12T02:38:48;11.38;;;8.15;;
38851;SDS011;24605;50.092;9.182;2022-09-12T02:41:16;13.48;;;8.23;;
38851;SDS011;24605;50.092;9.182;2022-09-12T02:43:45;9.90;;;7.53;;
38851;SDS011;24605;50.092;9.182;2022-09-12T02:46:14;13.07;;;8.52;;
38851;SDS011;24605;50.092;9.182;2022-09-12T02:48:45;10.85;;;7.35;;
38851;SDS011;24605;50.092;9.182;2022-09-12T02:51:12;11.68;;;7.65;;
38851;SDS011;24605;50.092;9.182;2022-09-12T02:53:38;12.02;;;8.23;;
38851;SDS011;24605;50.092;9.182;2022-09-12T02:56:08;10.88;;;7.45;;
38851;SDS011;24605;50.092;9.182;2022-09-12T02:58:39;11.93;;;8.32;;
38851;SDS011;24605;50.092;9.182;2022-09-12T03:01:07;11.52;;;7.25;;
38851;SDS011;24605;50.092;9.182;2022-09-12T03:03:55;11.45;;;7.60;;
38851;SDS011;24605;50.092;9.182;2022-09-12T03:06:36;11.20;;;7.82;;
38851;SDS011;24605;50.092;9.182;2022-09-12T03:09:16;10.77;;;7.47;;
38851;SDS011;24605;50.092;9.182;2022-09-12T03:11:59;11.88;;;8.07;;
38851;SDS011;24605;50.092;9.182;2022-09-12T03:14:35;12.40;;;7.78;;
38851;SDS011;24605;50.092;9.182;2022-09-12T03:17:16;12.40;;;7.72;;
38851;SDS011;24605;50.092;9.182;2022-09-12T03:19:53;11.10;;;7.53;;
38851;SDS011;24605;50.092;9.182;2022-09-12T03:22:27;11.25;;;7.68;;
38851;SDS011;24605;50.092;9.182;2022-09-12T03:25:00;13.10;;;7.25;;
38851;SDS011;24605;50.092;9.182;2022-09-12T03:27:32;9.55;;;6.85;;
38851;SDS011;24605;50.092;9.182;2022-09-12T03:30:02;11.40;;;7.38;;
38851;SDS011;24605;50.092;9.182;2022-09-12T03:32:40;10.20;;;7.93;;
38851;SDS011;24605;50.092;9.182;2022-09-12T03:35:11;11.13;;;7.82;;
38851;SDS011;24605;50.092;9.182;2022-09-12T03:37:39;13.38;;;7.72;;
38851;SDS011;24605;50.092;9.182;2022-09-12T03:40:06;11.95;;;8.07;;
38851;SDS011;24605;50.092;9.182;2022-09-12T03:42:34;13.48;;;7.60;;
38851;SDS011;24605;50.092;9.182;2022-09-12T03:45:01;10.35;;;7.30;;
38851;SDS011;24605;50.092;9.182;2022-09-12T03:47:27;12.77;;;8.52;;
38851;SDS011;24605;50.092;9.182;2022-09-12T03:49:54;11.75;;;7.70;;
38851;SDS011;24605;50.092;9.182;2022-09-12T03:52:21;12.85;;;8.52;;
38851;SDS011;24605;50.092;9.182;2022-09-12T03:54:49;14.32;;;7.90;;
38851;SDS011;24605;50.092;9.182;2022-09-12T03:57:15;11.52;;;8.13;;
38851;SDS011;24605;50.092;9.182;2022-09-12T03:59:42;13.05;;;7.60;;
38851;SDS011;24605;50.092;9.182;2022-09-12T04:02:08;12.82;;;7.53;;
38851;SDS011;24605;50.092;9.182;2022-09-12T04:04:37;11.23;;;7.43;;
38851;SDS011;24605;50.092;9.182;2022-09-12T04:07:05;10.80;;;7.88;;
38851;SDS011;24605;50.092;9.182;2022-09-12T04:09:34;12.98;;;7.82;;
38851;SDS011;24605;50.092;9.182;2022-09-12T04:12:00;12.57;;;7.82;;
38851;SDS011;24605;50.092;9.182;2022-09-12T04:14:27;10.93;;;7.60;;
38851;SDS011;24605;50.092;9.182;2022-09-12T04:16:54;12.15;;;8.00;;
38851;SDS011;24605;50.092;9.182;2022-09-12T04:19:20;10.75;;;7.78;;
38851;SDS011;24605;50.092;9.182;2022-09-12T04:21:47;12.13;;;7.60;;
38851;SDS011;24605;50.092;9.182;2022-09-12T04:24:14;14.38;;;8.18;;
38851;SDS011;24605;50.092;9.182;2022-09-12T04:26:42;11.52;;;7.75;;
38851;SDS011;24605;50.092;9.182;2022-09-12T04:29:08;11.23;;;7.47;;
38851;SDS011;24605;50.092;9.182;2022-09-12T04:31:36;11.27;;;7.85;;
38851;SDS011;24605;50.092;9.182;2022-09-12T04:34:03;11.32;;;7.80;;
38851;SDS011;24605;50.092;9.182;2022-09-12T04:36:30;11.40;;;7.50;;
38851;SDS011;24605;50.092;9.182;2022-09-12T04:38:57;16.40;;;8.52;;
38851;SDS011;24605;50.092;9.182;2022-09-12T04:41:25;11.25;;;7.57;;
38851;SDS011;24605;50.092;9.182;2022-09-12T04:43:54;12.60;;;8.68;;
38851;SDS011;24605;50.092;9.182;2022-09-12T04:46:23;12.82;;;8.63;;
38851;SDS011;24605;50.092;9.182;2022-09-12T04:48:50;14.77;;;8.55;;
38851;SDS011;24605;50.092;9.182;2022-09-12T04:51:19;12.63;;;8.32;;
38851;SDS011;24605;50.092;9.182;2022-09-12T04:53:47;13.25;;;8.55;;
38851;SDS011;24605;50.092;9.182;2022-09-12T04:56:15;12.52;;;8.35;;
38851;SDS011;24605;50.092;9.182;2022-09-12T04:58:42;14.00;;;8.88;;
38851;SDS011;24605;50.092;9.182;2022-09-12T05:01:11;12.73;;;8.90;;
38851;SDS011;24605;50.092;9.182;2022-09-12T05:03:39;13.63;;;8.73;;
38851;SDS011;24605;50.092;9.182;2022-09-12T05:06:08;12.68;;;8.65;;
38851;SDS011;24605;50.092;9.182;2022-09-12T05:08:36;13.82;;;8.70;;
38851;SDS011;24605;50.092;9.182;2022-09-12T05:11:03;13.30;;;9.38;;
38851;SDS011;24605;50.092;9.182;2022-09-12T05:13:31;13.45;;;8.73;;
38851;SDS011;24605;50.092;9.182;2022-09-12T05:15:58;13.82;;;8.52;;
38851;SDS011;24605;50.092;9.182;2022-09-12T05:18:27;14.63;;;9.10;;
38851;SDS011;24605;50.092;9.182;2022-09-12T05:20:56;15.60;;;9.02;;
38851;SDS011;24605;50.092;9.182;2022-09-12T05:23:24;13.93;;;9.48;;
38851;SDS011;24605;50.092;9.182;2022-09-12T05:25:52;13.98;;;9.50;;
38851;SDS011;24605;50.092;9.182;2022-09-12T05:28:20;14.93;;;9.43;;
38851;SDS011;24605;50.092;9.182;2022-09-12T05:30:47;12.70;;;8.40;;
38851;SDS011;24605;50.092;9.182;2022-09-12T05:33:14;14.98;;;9.10;;
38851;SDS011;24605;50.092;9.182;2022-09-12T05:35:46;12.73;;;8.57;;
38851;SDS011;24605;50.092;9.182;2022-09-12T05:38:16;14.13;;;9.57;;
38851;SDS011;24605;50.092;9.182;2022-09-12T05:40:43;11.75;;;8.77;;
38851;SDS011;24605;50.092;9.182;2022-09-12T05:43:09;12.60;;;8.20;;
38851;SDS011;24605;50.092;9.182;2022-09-12T05:45:36;12.27;;;8.52;;
38851;SDS011;24605;50.092;9.182;2022-09-12T05:48:02;11.18;;;7.80;;
38851;SDS011;24605;50.092;9.182;2022-09-12T05:50:29;12.95;;;8.40;;
38851;SDS011;24605;50.092;9.182;2022-09-12T05:52:57;12.68;;;9.02;;
38851;SDS011;24605;50.092;9.182;2022-09-12T05:55:24;13.60;;;9.43;;
38851;SDS011;24605;50.092;9.182;2022-09-12T05:57:50;17.23;;;9.77;;
38851;SDS011;24605;50.092;9.182;2022-09-12T06:00:18;13.50;;;8.95;;
38851;SDS011;24605;50.092;9.182;2022-09-12T06:02:44;14.32;;;9.23;;
38851;SDS011;24605;50.092;9.182;2022-09-12T06:05:17;11.73;;;8.23;;
38851;SDS011;24605;50.092;9.182;2022-09-12T06:07:44;13.05;;;8.95;;
38851;SDS011;24605;50.092;9.182;2022-09-12T06:10:12;12.75;;;8.77;;
38851;SDS011;24605;50.092;9.182;2022-09-12T06:12:40;13.10;;;8.95;;
38851;SDS011;24605;50.092;9.182;2022-09-12T06:15:08;12.02;;;8.57;;
38851;SDS011;24605;50.092;9.182;2022-09-12T06:17:34;12.32;;;8.73;;
38851;SDS011;24605;50.092;9.182;2022-09-12T06:20:01;11.20;;;8.63;;
38851;SDS011;24605;50.092;9.182;2022-09-12T06:22:28;13.18;;;8.85;;
38851;SDS011;24605;50.092;9.182;2022-09-12T06:24:55;12.80;;;8.95;;
38851;SDS011;24605;50.092;9.182;2022-09-12T06:27:23;11.73;;;8.25;;
38851;SDS011;24605;50.092;9.182;2022-09-12T06:29:50;11.32;;;8.23;;
38851;SDS011;24605;50.092;9.182;2022-09-12T06:32:16;12.70;;;8.88;;
38851;SDS011;24605;50.092;9.182;2022-09-12T06:34:43;12.27;;;8.05;;
38851;SDS011;24605;50.092;9.182;2022-09-12T06:37:11;12.68;;;9.23;;
38851;SDS011;24605;50.092;9.182;2022-09-12T06:39:38;11.63;;;7.88;;
38851;SDS011;24605;50.092;9.182;2022-09-12T06:42:04;11.50;;;7.88;;
38851;SDS011;24605;50.092;9.182;2022-09-12T06:44:32;10.88;;;7.22;;
38851;SDS011;24605;50.092;9.182;2022-09-12T06:46:59;10.55;;;7.32;;
38851;SDS011;24605;50.092;9.182;2022-09-12T06:49:25;9.88;;;7.20;;
38851;SDS011;24605;50.092;9.182;2022-09-12T06:51:52;10.18;;;7.20;;
38851;SDS011;24605;50.092;9.182;2022-09-12T06:54:18;9.85;;;6.95;;
38851;SDS011;24605;50.092;9.182;2022-09-12T06:56:45;10.23;;;6.90;;
38851;SDS011;24605;50.092;9.182;2022-09-12T06:59:11;8.90;;;6.55;;
38851;SDS011;24605;50.092;9.182;2022-09-12T07:01:39;8.70;;;6.65;;
38851;SDS011;24605;50.092;9.182;2022-09-12T07:04:06;13.10;;;7.68;;
38851;SDS011;24605;50.092;9.182;2022-09-12T07:06:34;10.77;;;6.45;;
38851;SDS011;24605;50.092;9.182;2022-09-12T07:09:02;9.40;;;6.63;;
38851;SDS011;24605;50.092;9.182;2022-09-12T07:11:31;8.68;;;6.57;;
38851;SDS011;24605;50.092;9.182;2022-09-12T07:14:01;9.10;;;6.85;;
38851;SDS011;24605;50.092;9.182;2022-09-12T07:16:28;10.38;;;6.40;;
38851;SDS011;24605;50.092;9.182;2022-09-12T07:18:57;10.63;;;6.72;;
38851;SDS011;24605;50.092;9.182;2022-09-12T07:21:25;9.57;;;6.80;;
38851;SDS011;24605;50.092;9.182;2022-09-12T07:23:52;9.52;;;6.15;;
38851;SDS011;24605;50.092;9.182;2022-09-12T07:26:21;11.02;;;6.32;;
38851;SDS011;24605;50.092;9.182;2022-09-12T07:28:49;10.23;;;6.68;;
38851;SDS011;24605;50.092;9.182;2022-09-12T07:31:17;8.82;;;6.30;;
38851;SDS011;24605;50.092;9.182;2022-09-12T07:33:44;10.02;;;6.40;;
38851;SDS011;24605;50.092;9.182;2022-09-12T07:36:13;7.00;;;5.70;;
38851;SDS011;24605;50.092;9.182;2022-09-12T07:38:41;8.05;;;5.68;;
38851;SDS011;24605;50.092;9.182;2022-09-12T07:41:11;8.57;;;6.28;;
38851;SDS011;24605;50.092;9.182;2022-09-12T07:43:38;8.07;;;6.00;;
38851;SDS011;24605;50.092;9.182;2022-09-12T07:46:05;8.55;;;5.90;;
38851;SDS011;24605;50.092;9.182;2022-09-12T07:48:32;10.43;;;6.10;;
38851;SDS011;24605;50.092;9.182;2022-09-12T07:50:59;8.98;;;5.85;;
38851;SDS011;24605;50.092;9.182;2022-09-12T07:53:31;9.00;;;5.80;;
38851;SDS011;24605;50.092;9.182;2022-09-12T07:55:59;8.80;;;5.60;;
38851;SDS011;24605;50.092;9.182;2022-09-12T07:58:27;8.23;;;5.57;;
38851;SDS011;24605;50.092;9.182;2022-09-12T08:00:54;10.60;;;6.20;;
38851;SDS011;24605;50.092;9.182;2022-09-12T08:03:27;7.90;;;5.88;;
38851;SDS011;24605;50.092;9.182;2022-09-12T08:05:53;9.57;;;6.78;;
38851;SDS011;24605;50.092;9.182;2022-09-12T08:08:20;7.65;;;5.88;;
38851;SDS011;24605;50.092;9.182;2022-09-12T08:10:47;7.22;;;5.22;;
38851;SDS011;24605;50.092;9.182;2022-09-12T08:13:14;9.63;;;5.68;;
38851;SDS011;24605;50.092;9.182;2022-09-12T08:15:40;10.15;;;5.80;;
38851;SDS011;24605;50.092;9.182;2022-09-12T08:18:07;10.27;;;6.28;;
38851;SDS011;24605;50.092;9.182;2022-09-12T08:20:33;9.80;;;5.80;;
38851;SDS011;24605;50.092;9.182;2022-09-12T08:22:59;7.28;;;5.32;;
38851;SDS011;24605;50.092;9.182;2022-09-12T08:25:26;8.80;;;6.10;;
38851;SDS011;24605;50.092;9.182;2022-09-12T08:27:54;8.63;;;6.18;;
38851;SDS011;24605;50.092;9.182;2022-09-12T08:30:20;7.93;;;5.85;;
38851;SDS011;24605;50.092;9.182;2022-09-12T08:32:47;9.23;;;6.35;;
38851;SDS011;24605;50.092;9.182;2022-09-12T08:35:13;8.60;;;6.75;;
38851;SDS011;24605;50.092;9.182;2022-09-12T08:37:39;8.73;;;5.93;;
38851;SDS011;24605;50.092;9.182;2022-09-12T08:40:07;9.32;;;6.55;;
38851;SDS011;24605;50.092;9.182;2022-09-12T08:42:42;8.60;;;6.17;;
38851;SDS011;24605;50.092;9.182;2022-09-12T08:45:18;9.43;;;5.97;;
38851;SDS011;24605;50.092;9.182;2022-09-12T08:47:55;7.65;;;5.20;;
38851;SDS011;24605;50.092;9.182;2022-09-12T08:50:22;11.02;;;6.40;;
38851;SDS011;24605;50.092;9.182;2022-09-12T08:52:50;10.95;;;7.30;;
38851;SDS011;24605;50.092;9.182;2022-09-12T08:55:24;8.20;;;6.10;;
38851;SDS011;24605;50.092;9.182;2022-09-12T08:57:55;10.82;;;6.90;;
38851;SDS011;24605;50.092;9.182;2022-09-12T09:00:26;11.95;;;7.18;;
38851;SDS011;24605;50.092;9.182;2022-09-12T09:03:15;10.88;;;5.95;;
38851;SDS011;24605;50.092;9.182;2022-09-12T09:05:58;7.57;;;5.45;;
38851;SDS011;24605;50.092;9.182;2022-09-12T09:08:41;7.82;;;5.68;;
38851;SDS011;24605;50.092;9.182;2022-09-12T09:11:25;8.45;;;5.40;;
38851;SDS011;24605;50.092;9.182;2022-09-12T09:14:07;7.85;;;5.43;;
38851;SDS011;24605;50.092;9.182;2022-09-12T09:17:03;7.75;;;5.32;;
38851;SDS011;24605;50.092;9.182;2022-09-12T09:19:36;9.13;;;4.65;;
38851;SDS011;24605;50.092;9.182;2022-09-12T09:22:10;7.15;;;5.18;;
38851;SDS011;24605;50.092;9.182;2022-09-12T09:24:40;7.35;;;5.30;;
38851;SDS011;24605;50.092;9.182;2022-09-12T09:27:12;6.70;;;5.20;;
38851;SDS011;24605;50.092;9.182;2022-09-12T09:29:44;6.20;;;4.75;;
38851;SDS011;24605;50.092;9.182;2022-09-12T09:32:16;7.10;;;4.43;;
38851;SDS011;24605;50.092;9.182;2022-09-12T09:34:44;7.32;;;4.82;;
38851;SDS011;24605;50.092;9.182;2022-09-12T09:37:12;8.68;;;5.07;;
38851;SDS011;24605;50.092;9.182;2022-09-12T09:39:47;6.38;;;4.47;;
38851;SDS011;24605;50.092;9.182;2022-09-12T09:42:23;6.18;;;4.55;;
38851;SDS011;24605;50.092;9.182;2022-09-12T09:44:57;6.13;;;4.57;;
38851;SDS011;24605;50.092;9.182;2022-09-12T09:47:27;7.03;;;4.70;;
38851;SDS011;24605;50.092;9.182;2022-09-12T09:49:53;7.50;;;4.85;;
38851;SDS011;24605;50.092;9.182;2022-09-12T09:52:23;6.90;;;4.70;;
38851;SDS011;24605;50.092;9.182;2022-09-12T09:54:54;8.18;;;4.93;;
38851;SDS011;24605;50.092;9.182;2022-09-12T09:57:39;5.88;;;4.25;;
38851;SDS011;24605;50.092;9.182;2022-09-12T10:00:21;8.20;;;4.75;;
38851;SDS011;24605;50.092;9.182;2022-09-12T10:02:58;7.20;;;4.35;;
38851;SDS011;24605;50.092;9.182;2022-09-12T10:05:27;5.90;;;4.28;;
38851;SDS011;24605;50.092;9.182;2022-09-12T10:07:54;7.60;;;4.35;;
38851;SDS011;24605;50.092;9.182;2022-09-12T10:10:20;5.40;;;3.83;;
38851;SDS011;24605;50.092;9.182;2022-09-12T10:12:47;8.05;;;4.65;;
38851;SDS011;24605;50.092;9.182;2022-09-12T10:15:15;6.45;;;3.95;;
38851;SDS011;24605;50.092;9.182;2022-09-12T10:17:44;8.75;;;4.13;;
38851;SDS011;24605;50.092;9.182;2022-09-12T10:22:59;6.68;;;3.80;;
38851;SDS011;24605;50.092;9.182;2022-09-12T10:25:28;5.88;;;4.10;;
38851;SDS011;24605;50.092;9.182;2022-09-12T10:27:55;5.43;;;3.50;;
38851;SDS011;24605;50.092;9.182;2022-09-12T10:30:24;7.20;;;3.72;;
38851;SDS011;24605;50.092;9.182;2022-09-12T10:32:53;5.20;;;3.70;;
38851;SDS011;24605;50.092;9.182;2022-09-12T10:35:30;5.28;;;3.65;;
38851;SDS011;24605;50.092;9.182;2022-09-12T10:38:11;5.82;;;4.10;;
38851;SDS011;24605;50.092;9.182;2022-09-12T10:40:42;5.15;;;3.53;;
38851;SDS011;24605;50.092;9.182;2022-09-12T10:43:15;6.70;;;3.97;;
38851;SDS011;24605;50.092;9.182;2022-09-12T10:45:42;6.43;;;3.75;;
38851;SDS011;24605;50.092;9.182;2022-09-12T10:48:21;5.22;;;3.58;;
38851;SDS011;24605;50.092;9.182;2022-09-12T10:50:53;6.57;;;4.03;;
38851;SDS011;24605;50.092;9.182;2022-09-12T10:53:21;5.68;;;3.97;;
38851;SDS011;24605;50.092;9.182;2022-09-12T10:55:56;6.75;;;4.05;;
38851;SDS011;24605;50.092;9.182;2022-09-12T10:58:49;7.07;;;4.05;;
38851;SDS011;24605;50.092;9.182;2022-09-12T11:01:29;5.95;;;4.15;;
38851;SDS011;24605;50.092;9.182;2022-09-12T11:04:13;5.72;;;4.30;;
38851;SDS011;24605;50.092;9.182;2022-09-12T11:06:51;5.57;;;3.72;;
38851;SDS011;24605;50.092;9.182;2022-09-12T11:09:28;6.40;;;4.20;;
38851;SDS011;24605;50.092;9.182;2022-09-12T11:12:04;5.82;;;3.50;;
38851;SDS011;24605;50.092;9.182;2022-09-12T11:14:42;4.95;;;3.67;;
38851;SDS011;24605;50.092;9.182;2022-09-12T11:17:24;4.50;;;3.47;;
38851;SDS011;24605;50.092;9.182;2022-09-12T11:20:03;5.38;;;3.80;;
38851;SDS011;24605;50.092;9.182;2022-09-12T11:22:55;6.18;;;4.22;;
38851;SDS011;24605;50.092;9.182;2022-09-12T11:25:42;5.93;;;3.70;;
38851;SDS011;24605;50.092;9.182;2022-09-12T11:28:17;5.50;;;3.80;;
38851;SDS011;24605;50.092;9.182;2022-09-12T11:31:12;5.13;;;3.60;;
38851;SDS011;24605;50.092;9.182;2022-09-12T11:33:49;7.03;;;3.83;;
38851;SDS011;24605;50.092;9.182;2022-09-12T11:36:24;5.30;;;3.80;;
38851;SDS011;24605;50.092;9.182;2022-09-12T11:39:03;5.90;;;3.83;;
38851;SDS011;24605;50.092;9.182;2022-09-12T11:41:37;6.10;;;4.10;;
38851;SDS011;24605;50.092;9.182;2022-09-12T11:44:09;6.03;;;3.83;;
38851;SDS011;24605;50.092;9.182;2022-09-12T11:46:40;5.40;;;3.53;;
38851;SDS011;24605;50.092;9.182;2022-09-12T11:49:12;5.85;;;3.65;;
38851;SDS011;24605;50.092;9.182;2022-09-12T11:51:47;6.22;;;4.07;;
38851;SDS011;24605;50.092;9.182;2022-09-12T11:54:21;5.15;;;4.03;;
38851;SDS011;24605;50.092;9.182;2022-09-12T11:56:54;6.18;;;3.78;;
38851;SDS011;24605;50.092;9.182;2022-09-12T12:01:58;5.35;;;3.88;;
38851;SDS011;24605;50.092;9.182;2022-09-12T12:04:27;6.50;;;3.90;;
38851;SDS011;24605;50.092;9.182;2022-09-12T12:07:00;4.82;;;3.53;;
38851;SDS011;24605;50.092;9.182;2022-09-12T12:09:31;5.13;;;3.20;;
38851;SDS011;24605;50.092;9.182;2022-09-12T12:11:59;5.25;;;3.42;;
38851;SDS011;24605;50.092;9.182;2022-09-12T12:14:32;4.82;;;3.35;;
38851;SDS011;24605;50.092;9.182;2022-09-12T12:17:11;4.43;;;3.35;;
38851;SDS011;24605;50.092;9.182;2022-09-12T12:19:40;4.93;;;3.50;;
38851;SDS011;24605;50.092;9.182;2022-09-12T12:22:11;5.43;;;3.90;;
38851;SDS011;24605;50.092;9.182;2022-09-12T12:25:02;5.93;;;3.40;;
38851;SDS011;24605;50.092;9.182;2022-09-12T12:27:48;6.00;;;3.60;;
38851;SDS011;24605;50.092;9.182;2022-09-12T12:36:40;5.32;;;3.38;;
38851;SDS011;24605;50.092;9.182;2022-09-12T12:45:46;4.63;;;3.28;;
38851;SDS011;24605;50.092;9.182;2022-09-12T12:48:50;4.97;;;3.47;;
38851;SDS011;24605;50.092;9.182;2022-09-12T12:51:33;4.45;;;3.00;;
38851;SDS011;24605;50.092;9.182;2022-09-12T12:54:03;5.57;;;3.75;;
38851;SDS011;24605;50.092;9.182;2022-09-12T12:56:37;4.45;;;3.08;;
38851;SDS011;24605;50.092;9.182;2022-09-12T12:59:11;4.23;;;3.00;;
38851;SDS011;24605;50.092;9.182;2022-09-12T13:01:44;5.40;;;3.30;;
38851;SDS011;24605;50.092;9.182;2022-09-12T13:04:15;5.47;;;3.67;;
38851;SDS011;24605;50.092;9.182;2022-09-12T13:06:45;4.95;;;3.38;;
38851;SDS011;24605;50.092;9.182;2022-09-12T13:09:22;5.50;;;3.35;;
38851;SDS011;24605;50.092;9.182;2022-09-12T13:11:57;5.18;;;3.33;;
38851;SDS011;24605;50.092;9.182;2022-09-12T13:14:33;4.95;;;3.30;;
38851;SDS011;24605;50.092;9.182;2022-09-12T13:17:04;5.25;;;3.45;;
38851;SDS011;24605;50.092;9.182;2022-09-12T13:19:35;5.40;;;3.10;;
38851;SDS011;24605;50.092;9.182;2022-09-12T13:22:03;6.18;;;3.40;;
38851;SDS011;24605;50.092;9.182;2022-09-12T13:24:31;5.30;;;3.30;;
38851;SDS011;24605;50.092;9.182;2022-09-12T13:26:58;4.55;;;2.40;;
38851;SDS011;24605;50.092;9.182;2022-09-12T13:29:25;4.57;;;2.75;;
38851;SDS011;24605;50.092;9.182;2022-09-12T13:31:53;4.75;;;3.20;;
38851;SDS011;24605;50.092;9.182;2022-09-12T13:34:25;4.43;;;2.92;;
38851;SDS011;24605;50.092;9.182;2022-09-12T13:36:56;4.88;;;3.30;;
38851;SDS011;24605;50.092;9.182;2022-09-12T13:39:44;5.07;;;3.42;;
38851;SDS011;24605;50.092;9.182;2022-09-12T13:42:26;6.47;;;3.33;;
38851;SDS011;24605;50.092;9.182;2022-09-12T13:45:03;5.82;;;2.90;;
38851;SDS011;24605;50.092;9.182;2022-09-12T13:47:33;3.83;;;2.80;;
38851;SDS011;24605;50.092;9.182;2022-09-12T13:50:03;4.50;;;2.90;;
38851;SDS011;24605;50.092;9.182;2022-09-12T13:52:33;3.90;;;2.58;;
38851;SDS011;24605;50.092;9.182;2022-09-12T13:55:04;4.13;;;2.60;;
38851;SDS011;24605;50.092;9.182;2022-09-12T13:57:33;4.10;;;2.70;;
38851;SDS011;24605;50.092;9.182;2022-09-12T14:00:03;3.72;;;2.63;;
38851;SDS011;24605;50.092;9.182;2022-09-12T14:02:33;4.25;;;2.67;;
38851;SDS011;24605;50.092;9.182;2022-09-12T14:05:11;3.72;;;2.63;;
38851;SDS011;24605;50.092;9.182;2022-09-12T14:07:39;4.78;;;2.47;;
38851;SDS011;24605;50.092;9.182;2022-09-12T14:10:20;3.78;;;2.78;;
38851;SDS011;24605;50.092;9.182;2022-09-12T14:12:54;5.97;;;2.92;;
38851;SDS011;24605;50.092;9.182;2022-09-12T14:15:23;4.18;;;2.75;;
38851;SDS011;24605;50.092;9.182;2022-09-12T14:17:52;4.13;;;2.72;;
38851;SDS011;24605;50.092;9.182;2022-09-12T14:20:22;4.55;;;2.65;;
38851;SDS011;24605;50.092;9.182;2022-09-12T14:22:49;4.20;;;2.60;;
38851;SDS011;24605;50.092;9.182;2022-09-12T14:25:17;3.67;;;2.20;;
38851;SDS011;24605;50.092;9.182;2022-09-12T14:27:49;4.20;;;2.58;;
38851;SDS011;24605;50.092;9.182;2022-09-12T14:30:22;4.30;;;2.70;;
38851;SDS011;24605;50.092;9.182;2022-09-12T14:33:04;4.45;;;3.03;;
38851;SDS011;24605;50.092;9.182;2022-09-12T14:35:43;3.47;;;2.42;;
38851;SDS011;24605;50.092;9.182;2022-09-12T14:38:12;3.40;;;2.30;;
38851;SDS011;24605;50.092;9.182;2022-09-12T14:40:48;3.50;;;2.15;;
38851;SDS011;24605;50.092;9.182;2022-09-12T14:43:19;4.10;;;2.38;;
38851;SDS011;24605;50.092;9.182;2022-09-12T14:45:51;5.82;;;2.50;;
38851;SDS011;24605;50.092;9.182;2022-09-12T14:48:19;3.35;;;2.30;;
38851;SDS011;24605;50.092;9.182;2022-09-12T14:50:48;3.35;;;2.40;;
38851;SDS011;24605;50.092;9.182;2022-09-12T14:53:22;3.70;;;2.40;;
38851;SDS011;24605;50.092;9.182;2022-09-12T14:55:51;4.57;;;2.47;;
38851;SDS011;24605;50.092;9.182;2022-09-12T14:58:22;5.05;;;2.45;;
38851;SDS011;24605;50.092;9.182;2022-09-12T15:01:00;3.83;;;2.53;;
38851;SDS011;24605;50.092;9.182;2022-09-12T15:03:29;3.47;;;2.53;;
38851;SDS011;24605;50.092;9.182;2022-09-12T15:06:00;4.43;;;2.92;;
38851;SDS011;24605;50.092;9.182;2022-09-12T15:08:29;3.55;;;2.63;;
38851;SDS011;24605;50.092;9.182;2022-09-12T15:10:56;4.32;;;2.70;;
38851;SDS011;24605;50.092;9.182;2022-09-12T15:13:24;3.75;;;2.40;;
38851;SDS011;24605;50.092;9.182;2022-09-12T15:15:52;4.43;;;2.78;;
38851;SDS011;24605;50.092;9.182;2022-09-12T15:18:20;3.78;;;2.58;;
38851;SDS011;24605;50.092;9.182;2022-09-12T15:20:48;3.83;;;2.30;;
38851;SDS011;24605;50.092;9.182;2022-09-12T15:23:19;5.05;;;2.63;;
38851;SDS011;24605;50.092;9.182;2022-09-12T15:25:51;3.95;;;2.50;;
38851;SDS011;24605;50.092;9.182;2022-09-12T15:28:18;3.28;;;2.33;;
38851;SDS011;24605;50.092;9.182;2022-09-12T15:30:45;3.40;;;2.40;;